Time;durP1;ratioP1;P1;durP2;ratioP2;P2;SDS_P1;SDS_P2;PMS_P1;PMS_P2;Temp;Humidity;BMP_temperature;BMP_pressure;BME280_temperature;BME280_humidity;BME280_pressure;Samples;Min_cycle;Max_cycle;Signal;HPM_P1;HPM_P2
2022/08/01 00:03:45;;;;;;;2.83;2.50;;;;;;;;;;10061071;28;20057;-62
2022/08/01 00:08:38;;;;;;;2.80;2.60;;;;;;;;;;10060952;28;20041;-62
2022/08/01 00:13:32;;;;;;;2.15;2.05;;;;;;;;;;10067515;28;20052;-62
2022/08/01 00:18:27;;;;;;;4.10;2.10;;;;;;;;;;10065384;28;20415;-62
2022/08/01 00:23:21;;;;;;;4.60;2.58;;;;;;;;;;10055394;28;20054;-62
2022/08/01 00:28:16;;;;;;;2.53;2.28;;;;;;;;;;10065593;28;20136;-62
2022/08/01 00:33:09;;;;;;;2.95;2.55;;;;;;;;;;10069337;28;20049;-62
2022/08/01 00:38:03;;;;;;;4.65;2.50;;;;;;;;;;10072572;28;20053;-62
2022/08/01 00:42:57;;;;;;;6.07;2.65;;;;;;;;;;10058629;28;20473;-62
2022/08/01 00:47:51;;;;;;;3.88;2.60;;;;;;;;;;10072600;28;20056;-62
2022/08/01 00:52:47;;;;;;;2.22;2.05;;;;;;;;;;10071660;28;20076;-62
2022/08/01 00:57:43;;;;;;;3.33;2.45;;;;;;;;;;10072093;28;20507;-62
2022/08/01 01:02:56;;;;;;;3.35;2.10;;;;;;;;;;10070433;28;20492;-62
2022/08/01 01:08:00;;;;;;;2.90;2.60;;;;;;;;;;10071812;28;20095;-62
2022/08/01 01:13:05;;;;;;;5.30;2.45;;;;;;;;;;10071544;28;20508;-62
2022/08/01 01:18:14;;;;;;;4.55;2.35;;;;;;;;;;10071562;28;20409;-62
2022/08/01 01:23:20;;;;;;;7.43;3.03;;;;;;;;;;10057739;28;20061;-62
2022/08/01 01:28:51;;;;;;;3.42;2.67;;;;;;;;;;10070658;28;20057;-61
2022/08/01 01:33:45;;;;;;;3.30;3.00;;;;;;;;;;10071120;28;20100;-62
2022/08/01 01:38:44;;;;;;;5.38;2.88;;;;;;;;;;10070350;28;20496;-62
2022/08/01 01:43:38;;;;;;;4.80;3.25;;;;;;;;;;10068690;28;20049;-62
2022/08/01 01:48:32;;;;;;;4.93;2.95;;;;;;;;;;10055050;28;20053;-62
2022/08/01 01:53:27;;;;;;;4.43;2.40;;;;;;;;;;10067442;28;20053;-62
2022/08/01 01:58:22;;;;;;;3.10;2.80;;;;;;;;;;10068475;28;20053;-81
2022/08/01 02:03:17;;;;;;;8.68;3.65;;;;;;;;;;10068553;28;20057;-80
2022/08/01 02:08:12;;;;;;;4.63;2.55;;;;;;;;;;10070022;28;20507;-79
2022/08/01 02:13:06;;;;;;;3.53;2.60;;;;;;;;;;10068333;28;20045;-77
2022/08/01 02:18:02;;;;;;;3.88;2.13;;;;;;;;;;10069262;28;20058;-77
2022/08/01 02:23:12;;;;;;;2.72;2.53;;;;;;;;;;10067721;28;20060;-76
2022/08/01 02:28:09;;;;;;;2.83;2.53;;;;;;;;;;10068321;28;20500;-81
2022/08/01 02:33:14;;;;;;;2.78;2.08;;;;;;;;;;10070711;28;20102;-74
2022/08/01 02:38:10;;;;;;;3.03;2.50;;;;;;;;;;10067877;28;20053;-76
2022/08/01 02:43:05;;;;;;;4.88;2.58;;;;;;;;;;10066596;28;20072;-76
2022/08/01 02:48:09;;;;;;;7.43;2.60;;;;;;;;;;10064332;28;20090;-78
2022/08/01 02:53:06;;;;;;;4.22;2.47;;;;;;;;;;10068503;28;20045;-81
2022/08/01 02:58:03;;;;;;;3.00;2.70;;;;;;;;;;10063489;28;20054;-80
2022/08/01 03:03:01;;;;;;;3.67;2.85;;;;;;;;;;10064503;28;20049;-81
2022/08/01 03:08:00;;;;;;;3.38;3.08;;;;;;;;;;10048308;28;20060;-76
2022/08/01 03:12:56;;;;;;;4.40;2.80;;;;;;;;;;10068583;28;20051;-74
2022/08/01 03:17:51;;;;;;;8.55;2.70;;;;;;;;;;10067675;28;20053;-72
2022/08/01 03:22:47;;;;;;;3.30;2.72;;;;;;;;;;10060324;28;20477;-75
2022/08/01 03:27:45;;;;;;;8.63;3.10;;;;;;;;;;10054626;28;20140;-75
2022/08/01 03:32:40;;;;;;;2.95;2.63;;;;;;;;;;10051844;28;20075;-73
2022/08/01 03:37:45;;;;;;;7.95;3.65;;;;;;;;;;10057913;28;20081;-76
2022/08/01 03:43:04;;;;;;;4.15;3.63;;;;;;;;;;10063621;28;20140;-77
2022/08/01 03:48:06;;;;;;;4.20;3.80;;;;;;;;;;10062872;28;20064;-75
2022/08/01 03:53:03;;;;;;;3.45;3.15;;;;;;;;;;10065449;28;20065;-76
2022/08/01 03:57:57;;;;;;;7.38;3.50;;;;;;;;;;10065441;28;20061;-77
2022/08/01 04:02:51;;;;;;;3.10;2.90;;;;;;;;;;10066471;28;20045;-76
2022/08/01 04:07:50;;;;;;;6.13;3.33;;;;;;;;;;10068597;28;20103;-76
2022/08/01 04:12:42;;;;;;;4.30;3.92;;;;;;;;;;10063150;28;20069;-76
2022/08/01 04:17:37;;;;;;;5.72;4.18;;;;;;;;;;10072188;28;20057;-76
2022/08/01 04:22:31;;;;;;;9.02;4.43;;;;;;;;;;10059318;28;20096;-77
2022/08/01 04:27:31;;;;;;;;;;;;;;;;;;10073190;28;20050;-77
2022/08/01 04:32:44;;;;;;;6.32;5.72;;;;;;;;;;10071580;28;19924;-76
2022/08/01 04:37:40;;;;;;;5.97;5.38;;;;;;;;;;10071370;28;20045;-76
2022/08/01 04:42:33;;;;;;;7.57;5.60;;;;;;;;;;10072491;28;20049;-76
2022/08/01 04:47:28;;;;;;;10.30;5.25;;;;;;;;;;10072426;28;20131;-77
2022/08/01 04:52:21;;;;;;;9.55;5.57;;;;;;;;;;10073728;28;20065;-74
2022/08/01 04:57:17;;;;;;;11.98;5.57;;;;;;;;;;10076418;28;20107;-76
2022/08/01 05:02:18;;;;;;;6.90;5.82;;;;;;;;;;10075087;28;20128;-74
2022/08/01 05:07:12;;;;;;;6.32;5.70;;;;;;;;;;10069068;28;20140;-77
2022/08/01 05:12:10;;;;;;;6.63;6.10;;;;;;;;;;10068588;28;20095;-79
2022/08/01 05:17:06;;;;;;;6.72;6.13;;;;;;;;;;10069831;28;20124;-77
2022/08/01 05:22:00;;;;;;;7.15;6.45;;;;;;;;;;10070451;28;20054;-78
2022/08/01 05:26:56;;;;;;;10.68;7.40;;;;;;;;;;10070167;28;20064;-79
2022/08/01 05:31:49;;;;;;;8.70;7.13;;;;;;;;;;10057336;28;20105;-76
2022/08/01 05:36:43;;;;;;;11.00;7.30;;;;;;;;;;10063979;28;20050;-81
2022/08/01 05:41:37;;;;;;;12.50;7.53;;;;;;;;;;10068123;28;20408;-74
2022/08/01 05:46:32;;;;;;;8.73;8.02;;;;;;;;;;10069534;28;20241;-69
2022/08/01 05:51:27;;;;;;;8.20;7.07;;;;;;;;;;10071549;28;20050;-71
2022/08/01 05:56:21;;;;;;;7.07;6.38;;;;;;;;;;10089192;28;20064;-69
2022/08/01 06:01:15;;;;;;;9.20;6.38;;;;;;;;;;10090209;28;20072;-71
2022/08/01 06:06:10;;;;;;;7.25;6.15;;;;;;;;;;10091104;28;20053;-70
2022/08/01 06:11:04;;;;;;;7.35;6.57;;;;;;;;;;10084971;28;20053;-71
2022/08/01 06:15:59;;;;;;;8.77;7.47;;;;;;;;;;10090296;28;20107;-71
2022/08/01 06:20:52;;;;;;;9.65;5.97;;;;;;;;;;10090059;28;20065;-68
2022/08/01 06:25:46;;;;;;;7.70;6.82;;;;;;;;;;10094822;28;20064;-71
2022/08/01 06:30:40;;;;;;;6.78;4.50;;;;;;;;;;10091734;28;20100;-72
2022/08/01 06:35:36;;;;;;;6.82;4.85;;;;;;;;;;10097645;28;20542;-71
2022/08/01 06:40:29;;;;;;;13.40;6.18;;;;;;;;;;10095399;28;20116;-69
2022/08/01 06:45:25;;;;;;;5.00;3.88;;;;;;;;;;10092940;28;20052;-69
2022/08/01 06:50:19;;;;;;;7.07;4.40;;;;;;;;;;10096308;28;20045;-68
2022/08/01 06:55:12;;;;;;;8.40;4.88;;;;;;;;;;10097592;28;20550;-69
2022/08/01 07:00:12;;;;;;;5.00;4.55;;;;;;;;;;10093607;28;20657;-68
2022/08/01 07:05:07;;;;;;;5.80;3.80;;;;;;;;;;10086808;28;20107;-67
2022/08/01 07:10:02;;;;;;;11.80;5.53;;;;;;;;;;10079929;28;20061;-69
2022/08/01 07:14:56;;;;;;;5.78;4.55;;;;;;;;;;10064017;28;20057;-67
2022/08/01 07:19:50;;;;;;;6.72;3.70;;;;;;;;;;10077557;28;20092;-69
2022/08/01 07:24:43;;;;;;;5.50;3.25;;;;;;;;;;10068758;28;20037;-64
2022/08/01 07:29:38;;;;;;;4.03;3.35;;;;;;;;;;10068848;28;20042;-65
2022/08/01 07:34:32;;;;;;;5.47;3.65;;;;;;;;;;10065558;28;20052;-66
2022/08/01 07:39:26;;;;;;;5.57;3.20;;;;;;;;;;10062144;28;20053;-67
2022/08/01 07:44:19;;;;;;;8.45;3.58;;;;;;;;;;10068139;28;20056;-69
2022/08/01 07:49:13;;;;;;;6.82;3.38;;;;;;;;;;10069595;28;20049;-69
2022/08/01 07:54:08;;;;;;;5.38;3.25;;;;;;;;;;10063326;28;20068;-67
2022/08/01 07:59:02;;;;;;;6.68;4.03;;;;;;;;;;10067511;28;20057;-67
2022/08/01 08:03:56;;;;;;;4.40;3.70;;;;;;;;;;10060099;28;20045;-68
2022/08/01 08:08:50;;;;;;;5.63;3.67;;;;;;;;;;10080318;28;20500;-68
2022/08/01 08:13:43;;;;;;;3.97;3.00;;;;;;;;;;10088445;28;20069;-69
2022/08/01 08:18:38;;;;;;;3.13;2.55;;;;;;;;;;10071323;28;20500;-64
2022/08/01 08:28:44;;;;;;;4.63;2.45;;;;;;;;;;10088720;28;20172;-64
2022/08/01 08:33:38;;;;;;;2.92;2.30;;;;;;;;;;10072403;28;20061;-65
2022/08/01 08:38:32;;;;;;;5.45;2.53;;;;;;;;;;10070619;28;20049;-66
2022/08/01 08:43:25;;;;;;;8.55;3.40;;;;;;;;;;10070275;28;20056;-66
2022/08/01 08:48:19;;;;;;;5.65;2.40;;;;;;;;;;10070910;28;20046;-65
2022/08/01 08:53:20;;;;;;;4.05;2.20;;;;;;;;;;10079121;28;20037;-66
2022/08/01 08:58:16;;;;;;;5.88;2.20;;;;;;;;;;10090059;28;20045;-66
2022/08/01 09:03:10;;;;;;;7.43;2.30;;;;;;;;;;10093647;28;20049;-65
2022/08/01 09:08:07;;;;;;;4.82;1.95;;;;;;;;;;10070983;28;20075;-65
2022/08/01 09:13:11;;;;;;;7.28;2.10;;;;;;;;;;10070019;28;20057;-65
2022/08/01 09:18:06;;;;;;;7.25;2.75;;;;;;;;;;10083036;28;20524;-65
2022/08/01 09:23:00;;;;;;;3.67;2.45;;;;;;;;;;10083259;28;20107;-65
2022/08/01 09:28:03;;;;;;;5.38;1.88;;;;;;;;;;10096984;28;20057;-65
2022/08/01 09:33:02;;;;;;;6.18;1.90;;;;;;;;;;10094120;28;20049;-65
2022/08/01 09:38:19;;;;;;;7.88;1.77;;;;;;;;;;10091938;28;20106;-65
2022/08/01 09:43:13;;;;;;;2.08;1.73;;;;;;;;;;10097164;28;20077;-67
2022/08/01 09:48:10;;;;;;;6.40;1.63;;;;;;;;;;10094913;28;20052;-62
2022/08/01 09:53:03;;;;;;;1.70;1.52;;;;;;;;;;10094882;28;20049;-66
2022/08/01 09:58:00;;;;;;;3.85;1.15;;;;;;;;;;10093899;28;20068;-65
2022/08/01 10:02:54;;;;;;;3.97;1.30;;;;;;;;;;10092945;28;20561;-66
2022/08/01 10:07:58;;;;;;;1.73;1.63;;;;;;;;;;10095392;28;20507;-67
2022/08/01 10:12:53;;;;;;;5.30;1.25;;;;;;;;;;10095323;28;20049;-66
2022/08/01 10:17:59;;;;;;;7.67;1.77;;;;;;;;;;10095984;28;20048;-65
2022/08/01 10:22:59;;;;;;;7.03;1.40;;;;;;;;;;10088589;28;20050;-66
2022/08/01 10:28:00;;;;;;;3.03;1.30;;;;;;;;;;10094604;28;20119;-65
2022/08/01 10:32:54;;;;;;;3.85;1.08;;;;;;;;;;10096149;28;20067;-65
2022/08/01 10:37:50;;;;;;;3.60;1.20;;;;;;;;;;10090040;28;20080;-68
2022/08/01 10:42:45;;;;;;;4.30;1.20;;;;;;;;;;10085437;28;20048;-64
2022/08/01 10:48:01;;;;;;;3.25;1.38;;;;;;;;;;10069018;28;20083;-64
2022/08/01 10:53:14;;;;;;;2.42;1.13;;;;;;;;;;10074244;28;20135;-63
2022/08/01 10:58:29;;;;;;;1.83;1.30;;;;;;;;;;10063270;28;20413;-64
2022/08/01 11:03:34;;;;;;;2.95;1.70;;;;;;;;;;10068592;28;20072;-62
2022/08/01 11:08:52;;;;;;;3.37;1.40;;;;;;;;;;10072741;28;20041;-64
2022/08/01 11:14:15;;;;;;;2.13;1.20;;;;;;;;;;10068021;28;20286;-64
2022/08/01 11:19:18;;;;;;;1.10;0.98;;;;;;;;;;10056833;28;20483;-64
2022/08/01 11:24:13;;;;;;;5.88;1.13;;;;;;;;;;10080259;28;20053;-67
2022/08/01 11:29:14;;;;;;;5.60;1.38;;;;;;;;;;10069417;28;20103;-65
2022/08/01 11:34:14;;;;;;;1.23;1.00;;;;;;;;;;10061796;28;20053;-65
2022/08/01 11:39:08;;;;;;;5.47;1.15;;;;;;;;;;10070942;28;20065;-64
2022/08/01 11:44:25;;;;;;;1.98;1.27;;;;;;;;;;10069468;28;20099;-64
2022/08/01 11:49:32;;;;;;;2.88;0.98;;;;;;;;;;10087901;28;20103;-65
2022/08/01 11:54:49;;;;;;;1.70;1.05;;;;;;;;;;10090015;28;20048;-65
2022/08/01 11:59:50;;;;;;;6.72;0.93;;;;;;;;;;10093615;28;20386;-65
2022/08/01 12:05:11;;;;;;;3.97;0.90;;;;;;;;;;10085518;28;20057;-65
2022/08/01 12:10:15;;;;;;;1.95;1.00;;;;;;;;;;10088632;28;20045;-64
2022/08/01 12:15:09;;;;;;;4.05;1.20;;;;;;;;;;10092083;28;20399;-63
2022/08/01 12:20:06;;;;;;;1.20;0.90;;;;;;;;;;10086206;28;20132;-64
2022/08/01 12:25:12;;;;;;;1.77;1.10;;;;;;;;;;10092774;28;20045;-65
2022/08/01 12:30:09;;;;;;;4.35;0.80;;;;;;;;;;10099758;28;20127;-64
2022/08/01 12:35:30;;;;;;;5.60;1.02;;;;;;;;;;10101317;28;20476;-66
2022/08/01 12:40:27;;;;;;;4.53;1.25;;;;;;;;;;10081231;28;20055;-66
2022/08/01 12:45:42;;;;;;;1.98;0.90;;;;;;;;;;10067063;28;20124;-64
2022/08/01 12:50:50;;;;;;;1.23;0.90;;;;;;;;;;10070834;28;20076;-65
2022/08/01 12:55:46;;;;;;;6.35;1.02;;;;;;;;;;10070606;28;20501;-66
2022/08/01 13:01:04;;;;;;;1.65;1.20;;;;;;;;;;10090807;28;20050;-64
2022/08/01 13:05:59;;;;;;;2.67;0.65;;;;;;;;;;10104987;28;20053;-65
2022/08/01 13:11:05;;;;;;;3.05;0.90;;;;;;;;;;10071332;28;20033;-64
2022/08/01 13:16:05;;;;;;;1.95;1.05;;;;;;;;;;10082069;28;20100;-64
2022/08/01 13:21:16;;;;;;;1.05;0.75;;;;;;;;;;10083239;28;20053;-64
2022/08/01 13:26:11;;;;;;;5.65;1.02;;;;;;;;;;10075089;28;20056;-65
2022/08/01 13:31:06;;;;;;;2.90;0.80;;;;;;;;;;10089652;28;20459;-65
2022/08/01 13:36:01;;;;;;;2.42;0.80;;;;;;;;;;10088479;28;20068;-66
2022/08/01 13:41:01;;;;;;;4.32;1.17;;;;;;;;;;10084003;28;20123;-66
2022/08/01 13:45:56;;;;;;;4.35;0.90;;;;;;;;;;10083977;28;20049;-66
2022/08/01 13:50:50;;;;;;;2.45;1.15;;;;;;;;;;10087714;28;20080;-65
2022/08/01 13:56:05;;;;;;;3.50;0.93;;;;;;;;;;10067909;28;20412;-66
2022/08/01 14:00:58;;;;;;;6.25;1.00;;;;;;;;;;10078638;28;20045;-65
2022/08/01 14:05:53;;;;;;;2.17;0.80;;;;;;;;;;10072846;28;20076;-65
2022/08/01 14:10:51;;;;;;;1.35;0.82;;;;;;;;;;10089569;28;20075;-66
2022/08/01 14:15:45;;;;;;;;;;;;;;;;;;10062019;28;20057;-66
2022/08/01 14:20:38;;;;;;;4.32;0.90;;;;;;;;;;10053315;28;19996;-65
2022/08/01 14:25:32;;;;;;;19.53;1.63;;;;;;;;;;10055113;28;20058;-65
2022/08/01 14:30:46;;;;;;;1.15;0.98;;;;;;;;;;10062845;28;20046;-66
2022/08/01 14:35:39;;;;;;;3.60;0.80;;;;;;;;;;10055589;28;20092;-67
2022/08/01 14:40:53;;;;;;;1.40;0.90;;;;;;;;;;10077756;28;20049;-65
2022/08/01 14:45:49;;;;;;;1.70;1.35;;;;;;;;;;10074525;28;20072;-66
2022/08/01 14:50:44;;;;;;;4.93;1.98;;;;;;;;;;10091128;28;20044;-65
2022/08/01 14:55:38;;;;;;;2.80;0.95;;;;;;;;;;10048613;28;20073;-65
2022/08/01 15:00:35;;;;;;;5.85;1.20;;;;;;;;;;10056965;28;20052;-63
2022/08/01 15:05:30;;;;;;;5.40;0.70;;;;;;;;;;10076942;28;20111;-67
2022/08/01 15:10:23;;;;;;;3.43;1.10;;;;;;;;;;10089193;28;20061;-65
2022/08/01 15:15:19;;;;;;;1.60;0.85;;;;;;;;;;10064808;28;20053;-62
2022/08/01 15:20:12;;;;;;;6.50;0.97;;;;;;;;;;10062330;28;20478;-62
2022/08/01 15:25:07;;;;;;;2.22;1.10;;;;;;;;;;10057990;28;20095;-62
2022/08/01 15:30:00;;;;;;;1.40;0.90;;;;;;;;;;10070471;28;20447;-62
2022/08/01 15:34:54;;;;;;;4.70;1.35;;;;;;;;;;10065979;28;20052;-62
2022/08/01 15:39:48;;;;;;;2.03;1.20;;;;;;;;;;10060623;28;20385;-62
2022/08/01 15:44:48;;;;;;;9.50;2.00;;;;;;;;;;10079561;28;20121;-63
2022/08/01 15:49:43;;;;;;;4.50;1.30;;;;;;;;;;10077654;28;20084;-62
2022/08/01 15:54:40;;;;;;;1.30;1.10;;;;;;;;;;10061366;28;20129;-64
2022/08/01 15:59:36;;;;;;;1.70;1.10;;;;;;;;;;10058822;28;20050;-65
2022/08/01 16:04:33;;;;;;;2.42;1.10;;;;;;;;;;10069088;28;20041;-65
2022/08/01 16:09:30;;;;;;;2.28;1.38;;;;;;;;;;10063710;28;20061;-64
2022/08/01 16:14:24;;;;;;;5.07;0.90;;;;;;;;;;10069632;28;20092;-65
2022/08/01 16:19:20;;;;;;;3.15;1.35;;;;;;;;;;10073021;28;20170;-64
2022/08/01 16:24:14;;;;;;;1.42;1.33;;;;;;;;;;10072250;28;20488;-64
2022/08/01 16:29:07;;;;;;;4.57;1.50;;;;;;;;;;10073043;28;20488;-64
2022/08/01 16:34:02;;;;;;;1.50;1.20;;;;;;;;;;10070067;28;20053;-64
2022/08/01 16:38:57;;;;;;;2.13;1.50;;;;;;;;;;10066655;28;20046;-64
2022/08/01 16:43:50;;;;;;;3.58;2.25;;;;;;;;;;10072379;28;20550;-64
2022/08/01 16:48:46;;;;;;;;;;;;;;;;;;10070893;28;20057;-64
2022/08/01 16:53:40;;;;;;;13.02;1.67;;;;;;;;;;10071619;28;19921;-64
2022/08/01 16:58:35;;;;;;;3.70;1.40;;;;;;;;;;10070627;28;20073;-64
2022/08/01 17:03:29;;;;;;;4.13;2.50;;;;;;;;;;10070408;28;20140;-64
2022/08/01 17:08:45;;;;;;;6.05;1.98;;;;;;;;;;10069690;28;20500;-64
2022/08/01 17:13:40;;;;;;;2.88;1.67;;;;;;;;;;10061916;28;20057;-64
2022/08/01 17:18:34;;;;;;;4.50;1.80;;;;;;;;;;10069838;28;20408;-63
2022/08/01 17:23:28;;;;;;;5.97;1.85;;;;;;;;;;10069411;28;20054;-63
2022/08/01 17:28:23;;;;;;;6.53;2.17;;;;;;;;;;10067939;28;20515;-64
2022/08/01 17:33:16;;;;;;;2.58;1.27;;;;;;;;;;10066763;28;20041;-64
2022/08/01 17:38:11;;;;;;;4.60;1.48;;;;;;;;;;10065368;28;20115;-65
2022/08/01 17:43:04;;;;;;;4.22;1.73;;;;;;;;;;10062110;28;20100;-64
2022/08/01 17:47:59;;;;;;;1.60;1.35;;;;;;;;;;10062321;28;20463;-64
2022/08/01 17:52:52;;;;;;;3.65;1.50;;;;;;;;;;10059901;28;20054;-64
2022/08/01 17:57:46;;;;;;;9.48;1.65;;;;;;;;;;10058256;28;20125;-64
2022/08/01 18:02:41;;;;;;;7.38;2.05;;;;;;;;;;10068729;28;20132;-64
2022/08/01 18:07:35;;;;;;;4.40;1.58;;;;;;;;;;10065661;28;20111;-64
2022/08/01 18:12:50;;;;;;;2.00;1.42;;;;;;;;;;10058032;28;20128;-64
2022/08/01 18:17:43;;;;;;;5.15;1.67;;;;;;;;;;10057548;28;20473;-64
2022/08/01 18:22:38;;;;;;;10.80;1.98;;;;;;;;;;10067754;28;20062;-64
2022/08/01 18:27:32;;;;;;;10.48;2.47;;;;;;;;;;10068376;28;20805;-64
2022/08/01 18:32:46;;;;;;;5.47;2.05;;;;;;;;;;10066645;28;20081;-64
2022/08/01 18:37:40;;;;;;;12.40;2.72;;;;;;;;;;10066586;28;20084;-64
2022/08/01 18:42:46;;;;;;;15.65;3.00;;;;;;;;;;10066747;28;20409;-64
2022/08/01 18:47:39;;;;;;;4.25;1.75;;;;;;;;;;10067251;28;20111;-64
2022/08/01 18:52:33;;;;;;;4.47;1.92;;;;;;;;;;10064703;28;20104;-64
2022/08/01 18:57:26;;;;;;;3.80;1.80;;;;;;;;;;10066648;28;20092;-64
2022/08/01 19:02:20;;;;;;;4.13;1.90;;;;;;;;;;10066059;28;20076;-63
2022/08/01 19:07:14;;;;;;;5.88;1.88;;;;;;;;;;10059160;28;20068;-64
2022/08/01 19:12:25;;;;;;;7.35;1.65;;;;;;;;;;10066786;28;20049;-62
2022/08/01 19:17:20;;;;;;;7.65;1.63;;;;;;;;;;10065721;28;20081;-64
2022/08/01 19:22:18;;;;;;;2.95;1.85;;;;;;;;;;10062643;28;20472;-62
2022/08/01 19:27:16;;;;;;;8.68;2.35;;;;;;;;;;10056923;28;20045;-64
2022/08/01 19:32:12;;;;;;;4.90;2.13;;;;;;;;;;10063965;28;20050;-62
2022/08/01 19:37:08;;;;;;;11.68;2.10;;;;;;;;;;10062659;28;20136;-63
2022/08/01 19:42:04;;;;;;;9.32;2.28;;;;;;;;;;10062827;28;20053;-63
2022/08/01 19:46:59;;;;;;;6.07;2.10;;;;;;;;;;10063305;28;20107;-63
2022/08/01 19:51:58;;;;;;;9.07;3.47;;;;;;;;;;10062753;28;20049;-62
2022/08/01 19:56:52;;;;;;;8.77;4.60;;;;;;;;;;10063248;28;20053;-62
2022/08/01 20:01:51;;;;;;;7.28;3.78;;;;;;;;;;10059485;28;20041;-62
2022/08/01 20:06:47;;;;;;;9.55;4.93;;;;;;;;;;10055658;28;20056;-63
2022/08/01 20:11:45;;;;;;;9.68;6.30;;;;;;;;;;10065497;28;20049;-63
2022/08/01 20:16:40;;;;;;;15.55;8.32;;;;;;;;;;10065024;28;20073;-63
2022/08/01 20:21:35;;;;;;;11.57;8.77;;;;;;;;;;10066544;28;20132;-63
2022/08/01 20:26:30;;;;;;;9.57;7.22;;;;;;;;;;10065350;28;20100;-63
2022/08/01 20:31:26;;;;;;;9.65;5.60;;;;;;;;;;10065022;28;20124;-63
2022/08/01 20:36:36;;;;;;;12.82;6.35;;;;;;;;;;10064725;28;20172;-61
2022/08/01 20:41:31;;;;;;;9.43;6.22;;;;;;;;;;10064105;28;20054;-61
2022/08/01 20:46:27;;;;;;;10.20;4.78;;;;;;;;;;10061692;28;20124;-61
2022/08/01 20:51:24;;;;;;;6.22;4.35;;;;;;;;;;10066675;28;20045;-62
2022/08/01 20:56:23;;;;;;;;;;;;;;;;;;10048216;28;20140;-64
2022/08/01 21:01:47;;;;;;;8.02;3.28;;;;;;;;;;10070702;28;19921;-64
2022/08/01 21:06:44;;;;;;;8.25;3.83;;;;;;;;;;10071735;28;20499;-66
2022/08/01 21:12:02;;;;;;;7.40;4.35;;;;;;;;;;10082670;28;20408;-65
2022/08/01 21:17:01;;;;;;;10.10;3.85;;;;;;;;;;10068830;28;20099;-67
2022/08/01 21:22:21;;;;;;;6.10;4.97;;;;;;;;;;10067537;28;20100;-67
2022/08/01 21:27:21;;;;;;;6.22;3.70;;;;;;;;;;10090362;28;20495;-66
2022/08/01 21:32:29;;;;;;;9.35;4.22;;;;;;;;;;10067656;28;20053;-69
2022/08/01 21:37:23;;;;;;;6.53;5.13;;;;;;;;;;10067660;28;20042;-68
2022/08/01 21:42:18;;;;;;;6.95;4.68;;;;;;;;;;10065148;28;20053;-68
2022/08/01 21:47:13;;;;;;;6.68;4.85;;;;;;;;;;10060632;28;20433;-66
2022/08/01 21:52:14;;;;;;;6.68;4.28;;;;;;;;;;10054413;28;20465;-66
2022/08/01 21:57:40;;;;;;;5.30;4.05;;;;;;;;;;10060960;28;20134;-67
2022/08/01 22:02:52;;;;;;;7.95;3.90;;;;;;;;;;10070277;28;20080;-66
2022/08/01 22:07:55;;;;;;;6.78;3.40;;;;;;;;;;10066400;28;20132;-67
2022/08/01 22:12:48;;;;;;;5.45;3.15;;;;;;;;;;10066499;28;20104;-66
2022/08/01 22:17:43;;;;;;;8.45;3.30;;;;;;;;;;10069735;28;20041;-68
2022/08/01 22:22:38;;;;;;;4.85;2.78;;;;;;;;;;10063884;28;20057;-66
2022/08/01 22:27:45;;;;;;;4.97;2.72;;;;;;;;;;10065104;28;20488;-66
2022/08/01 22:32:59;;;;;;;7.22;3.10;;;;;;;;;;10060169;28;20045;-67
2022/08/01 22:38:08;;;;;;;3.17;2.80;;;;;;;;;;10072660;28;20443;-67
2022/08/01 22:43:11;;;;;;;7.63;3.00;;;;;;;;;;10062788;28;20081;-67
2022/08/01 22:48:07;;;;;;;3.83;2.85;;;;;;;;;;10074970;28;20496;-67
2022/08/01 22:53:33;;;;;;;5.97;3.10;;;;;;;;;;10089060;28;20167;-67
2022/08/01 22:58:29;;;;;;;7.65;3.22;;;;;;;;;;10089416;28;20136;-67
2022/08/01 23:03:33;;;;;;;4.07;3.78;;;;;;;;;;10079930;28;20377;-67
2022/08/01 23:08:27;;;;;;;3.58;2.97;;;;;;;;;;10066409;28;20463;-67
2022/08/01 23:13:22;;;;;;;9.43;3.03;;;;;;;;;;10065082;28;20080;-67
2022/08/01 23:18:15;;;;;;;5.90;2.53;;;;;;;;;;10070929;28;20500;-67
2022/08/01 23:23:09;;;;;;;6.50;3.00;;;;;;;;;;10061903;28;20107;-67
2022/08/01 23:28:04;;;;;;;3.47;2.40;;;;;;;;;;10062864;28;20046;-67
2022/08/01 23:32:58;;;;;;;5.53;3.00;;;;;;;;;;10059338;28;20107;-67
2022/08/01 23:37:52;;;;;;;3.58;2.63;;;;;;;;;;10061123;28;20451;-67
2022/08/01 23:42:49;;;;;;;2.58;2.38;;;;;;;;;;10064237;28;20524;-68
2022/08/01 23:47:44;;;;;;;5.05;2.40;;;;;;;;;;10065355;28;20059;-68
2022/08/01 23:52:39;;;;;;;5.53;2.08;;;;;;;;;;10066288;28;20064;-67
2022/08/01 23:57:41;;;;;;;4.03;2.42;;;;;;;;;;10062199;28;20115;-67
